Time;durP1;ratioP1;P1;durP2;ratioP2;P2;SDS_P1;SDS_P2;PMS_P1;PMS_P2;Temp;Humidity;BMP_temperature;BMP_pressure;BME280_temperature;BME280_humidity;BME280_pressure;Samples;Min_cycle;Max_cycle;Signal;HPM_P1;HPM_P2
2023/01/21 00:02:17;;;;;;;;;;;19.40;52.70;;;;;;6319168;28;19904;-69
2023/01/21 00:05:17;;;;;;;;;;;19.40;52.60;;;;;;6318950;28;19907;-69
2023/01/21 00:08:18;;;;;;;;;;;19.40;52.60;;;;;;6318848;28;19908;-69
2023/01/21 00:11:18;;;;;;;;;;;19.40;52.60;;;;;;6318764;28;19911;-69
2023/01/21 00:14:19;;;;;;;;;;;19.40;52.60;;;;;;6318739;28;19994;-69
2023/01/21 00:17:19;;;;;;;;;;;19.40;52.60;;;;;;6300326;28;19912;-69
2023/01/21 00:20:20;;;;;;;;;;;19.40;52.70;;;;;;6300107;28;19907;-69
2023/01/21 00:23:21;;;;;;;;;;;19.40;52.60;;;;;;6318410;28;19911;-69
2023/01/21 00:26:21;;;;;;;;;;;19.40;52.60;;;;;;6318200;28;19923;-69
2023/01/21 00:29:22;;;;;;;;;;;19.40;52.60;;;;;;6317105;28;19904;-69
2023/01/21 00:32:22;;;;;;;;;;;19.40;52.60;;;;;;6317932;28;20361;-69
2023/01/21 00:35:23;;;;;;;;;;;19.40;52.60;;;;;;6318125;28;19904;-69
2023/01/21 00:38:23;;;;;;;;;;;19.40;52.40;;;;;;6300120;28;19917;-69
2023/01/21 00:41:25;;;;;;;;;;;19.40;52.60;;;;;;6300101;28;19904;-69
2023/01/21 00:44:25;;;;;;;;;;;19.40;52.60;;;;;;6318314;28;19903;-69
2023/01/21 00:47:26;;;;;;;;;;;19.40;52.60;;;;;;6317993;28;19965;-69
2023/01/21 00:50:26;;;;;;;;;;;19.40;52.60;;;;;;6317642;28;19904;-69
2023/01/21 00:53:28;;;;;;;;;;;19.40;52.60;;;;;;6317936;28;19908;-69
2023/01/21 00:56:29;;;;;;;;;;;19.40;52.50;;;;;;6317582;28;19915;-69
2023/01/21 00:59:30;;;;;;;;;;;19.40;52.60;;;;;;6317180;28;20269;-69
2023/01/21 01:02:30;;;;;;;;;;;19.40;52.50;;;;;;6317412;28;20045;-69
2023/01/21 01:05:31;;;;;;;;;;;19.40;52.60;;;;;;6318104;28;19908;-69
2023/01/21 01:08:31;;;;;;;;;;;19.40;52.60;;;;;;6317592;28;19904;-69
2023/01/21 01:11:32;;;;;;;;;;;19.40;52.60;;;;;;6317945;28;19907;-69
2023/01/21 01:14:33;;;;;;;;;;;19.40;52.50;;;;;;6317977;28;19908;-69
2023/01/21 01:17:33;;;;;;;;;;;19.40;52.50;;;;;;6317689;28;19908;-69
2023/01/21 01:20:34;;;;;;;;;;;19.40;52.50;;;;;;6317812;28;20045;-67
2023/01/21 01:23:35;;;;;;;;;;;19.30;52.50;;;;;;6317615;28;19959;-67
2023/01/21 01:26:35;;;;;;;;;;;19.40;52.50;;;;;;6317398;28;20000;-68
2023/01/21 01:29:36;;;;;;;;;;;19.40;52.60;;;;;;6298864;28;19912;-67
2023/01/21 01:32:36;;;;;;;;;;;19.40;52.60;;;;;;6317345;28;19964;-68
2023/01/21 01:35:37;;;;;;;;;;;19.30;52.50;;;;;;6317610;28;19965;-68
2023/01/21 01:38:38;;;;;;;;;;;19.40;52.60;;;;;;6317450;28;19908;-68
2023/01/21 01:41:38;;;;;;;;;;;19.40;52.50;;;;;;6317573;28;19931;-68
2023/01/21 01:44:56;;;;;;;;;;;19.30;52.40;;;;;;6301614;28;19912;-67
2023/01/21 01:47:59;;;;;;;;;;;19.30;52.50;;;;;;6321900;28;19998;-67
2023/01/21 01:51:02;;;;;;;;;;;19.30;52.40;;;;;;6322487;28;20349;-67
2023/01/21 01:54:04;;;;;;;;;;;19.40;52.50;;;;;;6303613;28;20321;-67
2023/01/21 01:57:07;;;;;;;;;;;19.40;52.50;;;;;;6303928;28;19966;-67
2023/01/21 02:00:10;;;;;;;;;;;19.30;52.50;;;;;;6303680;28;19904;-67
2023/01/21 02:06:29;;;;;;;;;;;19.30;52.50;;;;;;6321986;28;19931;-70
2023/01/21 02:09:30;;;;;;;;;;;19.30;52.50;;;;;;6303441;28;20005;-68
2023/01/21 02:12:31;;;;;;;;;;;19.40;52.50;;;;;;6321530;28;19912;-67
2023/01/21 02:15:39;;;;;;;;;;;19.30;52.40;;;;;;6321617;28;19908;-67
2023/01/21 02:18:46;;;;;;;;;;;19.30;52.40;;;;;;6321912;28;20057;-68
2023/01/21 02:22:05;;;;;;;;;;;19.40;52.50;;;;;;6328549;28;20119;-67
2023/01/21 02:25:38;;;;;;;;;;;19.40;52.50;;;;;;6321129;28;19915;-67
2023/01/21 02:28:38;;;;;;;;;;;19.30;52.40;;;;;;6275571;28;19936;-67
2023/01/21 02:31:39;;;;;;;;;;;19.40;52.50;;;;;;6303104;28;19930;-67
2023/01/21 02:34:39;;;;;;;;;;;19.40;52.50;;;;;;6321306;28;19904;-67
2023/01/21 02:37:55;;;;;;;;;;;19.40;52.50;;;;;;6321251;28;19903;-68
2023/01/21 02:41:05;;;;;;;;;;;19.30;52.40;;;;;;6321069;28;19905;-70
2023/01/21 02:44:06;;;;;;;;;;;19.40;52.50;;;;;;6320849;28;19904;-70
2023/01/21 02:47:10;;;;;;;;;;;19.30;52.40;;;;;;6320799;28;20269;-67
2023/01/21 02:50:13;;;;;;;;;;;19.30;52.40;;;;;;6320988;28;19943;-67
2023/01/21 02:53:23;;;;;;;;;;;19.40;52.50;;;;;;6320811;28;19904;-67
2023/01/21 02:56:25;;;;;;;;;;;19.30;52.40;;;;;;6301934;28;19908;-67
2023/01/21 02:59:26;;;;;;;;;;;19.30;52.40;;;;;;6320651;28;19947;-67
2023/01/21 03:02:32;;;;;;;;;;;19.30;52.40;;;;;;6320484;28;19910;-67
2023/01/21 03:05:48;;;;;;;;;;;19.40;52.50;;;;;;6320312;28;19942;-67
2023/01/21 03:08:54;;;;;;;;;;;19.30;52.40;;;;;;6320526;28;19937;-67
2023/01/21 03:11:57;;;;;;;;;;;19.40;52.40;;;;;;6320209;28;20433;-67
2023/01/21 03:18:27;;;;;;;;;;;19.30;52.40;;;;;;6320151;28;19912;-67
2023/01/21 03:21:29;;;;;;;;;;;19.40;52.50;;;;;;6319835;28;19904;-67
2023/01/21 03:24:30;;;;;;;;;;;19.40;52.40;;;;;;6319665;28;19911;-67
2023/01/21 03:27:31;;;;;;;;;;;19.30;52.50;;;;;;6319642;28;19916;-67
2023/01/21 03:30:32;;;;;;;;;;;19.30;52.40;;;;;;6319826;28;19904;-68
2023/01/21 03:33:35;;;;;;;;;;;19.30;52.40;;;;;;6319734;28;19911;-68
2023/01/21 03:36:42;;;;;;;;;;;19.40;52.40;;;;;;6318395;28;20007;-67
2023/01/21 03:40:02;;;;;;;;;;;19.40;52.50;;;;;;6319890;28;20313;-68
2023/01/21 03:43:02;;;;;;;;;;;19.30;52.40;;;;;;6301040;28;20365;-68
2023/01/21 03:46:12;;;;;;;;;;;19.40;52.50;;;;;;6319351;28;19950;-67
2023/01/21 03:49:17;;;;;;;;;;;19.30;52.40;;;;;;6301039;28;19932;-68
2023/01/21 03:52:20;;;;;;;;;;;19.30;52.40;;;;;;6301504;28;19912;-67
2023/01/21 03:55:21;;;;;;;;;;;19.30;52.40;;;;;;6319083;28;20444;-68
2023/01/21 03:58:22;;;;;;;;;;;19.30;52.40;;;;;;6300916;28;19915;-68
2023/01/21 04:01:22;;;;;;;;;;;19.30;52.40;;;;;;6319173;28;19904;-67
2023/01/21 04:04:23;;;;;;;;;;;19.30;52.40;;;;;;6318581;28;19904;-67
2023/01/21 04:07:23;;;;;;;;;;;19.30;52.40;;;;;;6318292;28;19994;-67
2023/01/21 04:10:24;;;;;;;;;;;19.30;52.40;;;;;;6319136;28;19945;-68
2023/01/21 04:13:24;;;;;;;;;;;19.30;52.40;;;;;;6318813;28;19994;-67
2023/01/21 04:16:25;;;;;;;;;;;19.30;52.40;;;;;;6300448;28;19916;-67
2023/01/21 04:19:25;;;;;;;;;;;19.30;52.40;;;;;;6318881;28;19914;-67
2023/01/21 04:22:26;;;;;;;;;;;19.30;52.40;;;;;;6318790;28;19904;-67
2023/01/21 04:25:26;;;;;;;;;;;19.40;52.50;;;;;;6318274;28;19999;-67
2023/01/21 04:28:27;;;;;;;;;;;19.40;52.50;;;;;;6300331;28;19961;-67
2023/01/21 04:31:27;;;;;;;;;;;19.30;52.60;;;;;;6318570;28;19940;-67
2023/01/21 04:34:28;;;;;;;;;;;19.30;52.40;;;;;;6318592;28;19931;-68
2023/01/21 04:37:28;;;;;;;;;;;19.30;52.40;;;;;;6299725;28;19912;-68
2023/01/21 04:40:29;;;;;;;;;;;19.30;52.40;;;;;;6318408;28;20091;-67
2023/01/21 04:43:29;;;;;;;;;;;19.30;52.40;;;;;;6318251;28;19914;-67
2023/01/21 04:46:30;;;;;;;;;;;19.30;52.40;;;;;;6318082;28;19939;-67
2023/01/21 04:49:30;;;;;;;;;;;19.30;52.40;;;;;;6317962;28;19956;-68
2023/01/21 04:52:31;;;;;;;;;;;19.30;52.40;;;;;;6299512;28;19908;-67
2023/01/21 04:55:31;;;;;;;;;;;19.30;52.40;;;;;;6299057;28;19912;-67
2023/01/21 04:58:32;;;;;;;;;;;19.30;52.40;;;;;;6299390;28;19908;-67
2023/01/21 05:01:33;;;;;;;;;;;19.30;52.40;;;;;;6318090;28;19911;-68
2023/01/21 05:04:33;;;;;;;;;;;19.30;52.40;;;;;;6317635;28;20284;-68
2023/01/21 05:07:35;;;;;;;;;;;19.30;52.40;;;;;;6299954;28;19951;-67
2023/01/21 05:10:36;;;;;;;;;;;19.30;52.40;;;;;;6317799;28;19910;-67
2023/01/21 05:13:36;;;;;;;;;;;19.30;52.40;;;;;;6299623;28;20459;-68
2023/01/21 05:16:37;;;;;;;;;;;19.30;52.40;;;;;;6317353;28;19908;-67
2023/01/21 05:19:37;;;;;;;;;;;19.30;52.40;;;;;;6322513;28;20029;-67
2023/01/21 05:22:38;;;;;;;;;;;19.30;52.40;;;;;;6323028;28;19965;-67
2023/01/21 05:25:38;;;;;;;;;;;19.30;52.40;;;;;;6322360;28;19914;-67
2023/01/21 05:28:39;;;;;;;;;;;19.30;52.40;;;;;;6322798;28;20327;-67
2023/01/21 05:31:39;;;;;;;;;;;19.30;52.40;;;;;;6322785;28;19904;-67
2023/01/21 05:34:40;;;;;;;;;;;19.30;52.40;;;;;;6322505;28;19947;-67
2023/01/21 05:37:40;;;;;;;;;;;19.30;52.40;;;;;;6322605;28;20061;-68
2023/01/21 05:40:41;;;;;;;;;;;19.30;52.40;;;;;;6304198;28;20044;-67
2023/01/21 05:43:42;;;;;;;;;;;19.30;52.40;;;;;;6322284;28;19904;-67
2023/01/21 05:46:42;;;;;;;;;;;19.30;52.40;;;;;;6322488;28;20002;-67
2023/01/21 05:49:43;;;;;;;;;;;19.30;52.40;;;;;;6304275;28;20383;-67
2023/01/21 05:52:43;;;;;;;;;;;19.30;53.10;;;;;;6322039;28;20030;-67
2023/01/21 05:55:44;;;;;;;;;;;19.30;52.40;;;;;;6304031;28;19904;-67
2023/01/21 05:58:44;;;;;;;;;;;19.30;52.50;;;;;;6303358;28;19927;-67
2023/01/21 06:01:45;;;;;;;;;;;19.30;52.40;;;;;;6321280;28;20421;-70
2023/01/21 06:04:45;;;;;;;;;;;19.30;52.40;;;;;;6321725;28;19935;-70
2023/01/21 06:07:46;;;;;;;;;;;19.30;52.40;;;;;;6322166;28;19900;-68
2023/01/21 06:10:47;;;;;;;;;;;19.30;52.40;;;;;;6321165;28;19911;-67
2023/01/21 06:13:47;;;;;;;;;;;19.30;52.40;;;;;;6322011;28;19990;-67
2023/01/21 06:16:48;;;;;;;;;;;19.30;52.50;;;;;;6303508;28;19920;-67
2023/01/21 06:19:48;;;;;;;;;;;19.30;52.40;;;;;;6303560;28;19915;-67
2023/01/21 06:22:49;;;;;;;;;;;19.30;52.40;;;;;;6303268;28;19995;-68
2023/01/21 06:25:49;;;;;;;;;;;19.30;52.40;;;;;;6303444;28;19919;-67
2023/01/21 06:28:50;;;;;;;;;;;19.30;52.40;;;;;;6320597;28;19904;-67
2023/01/21 06:31:50;;;;;;;;;;;19.30;52.40;;;;;;6321142;28;19959;-68
2023/01/21 06:34:51;;;;;;;;;;;19.30;52.30;;;;;;6321511;28;19999;-68
2023/01/21 06:37:51;;;;;;;;;;;19.30;52.40;;;;;;6321504;28;20014;-67
2023/01/21 06:40:52;;;;;;;;;;;19.30;52.40;;;;;;6303071;28;19908;-68
2023/01/21 06:43:52;;;;;;;;;;;19.30;52.30;;;;;;6321310;28;20012;-67
2023/01/21 06:46:53;;;;;;;;;;;19.30;52.40;;;;;;6302684;28;19929;-68
2023/01/21 06:49:54;;;;;;;;;;;19.30;52.40;;;;;;6302743;28;19904;-68
2023/01/21 06:52:54;;;;;;;;;;;19.30;52.30;;;;;;6320824;28;19904;-68
2023/01/21 06:55:55;;;;;;;;;;;19.30;52.40;;;;;;6320849;28;19905;-67
2023/01/21 06:58:55;;;;;;;;;;;19.30;52.30;;;;;;6320206;28;19914;-67
2023/01/21 07:01:57;;;;;;;;;;;19.30;52.30;;;;;;6320755;28;20006;-68
2023/01/21 07:04:58;;;;;;;;;;;19.30;52.30;;;;;;6301971;28;19911;-68
2023/01/21 07:07:58;;;;;;;;;;;19.30;52.40;;;;;;6320388;28;19908;-67
2023/01/21 07:10:59;;;;;;;;;;;19.30;52.30;;;;;;6320287;28;19912;-67
2023/01/21 07:14:00;;;;;;;;;;;19.30;52.30;;;;;;6320361;28;19908;-67
2023/01/21 07:17:00;;;;;;;;;;;19.30;52.30;;;;;;6320092;28;19914;-67
2023/01/21 07:20:01;;;;;;;;;;;19.30;52.30;;;;;;6320297;28;19908;-67
2023/01/21 07:23:01;;;;;;;;;;;19.30;52.30;;;;;;6320205;28;19904;-68
2023/01/21 07:26:02;;;;;;;;;;;19.30;52.30;;;;;;6301697;28;19973;-67
2023/01/21 07:29:04;;;;;;;;;;;19.30;52.30;;;;;;6301602;28;19917;-68
2023/01/21 07:32:05;;;;;;;;;;;19.30;52.30;;;;;;6301413;28;20315;-67
2023/01/21 07:35:06;;;;;;;;;;;19.30;52.30;;;;;;6319504;28;19904;-68
2023/01/21 07:38:06;;;;;;;;;;;19.30;52.30;;;;;;6320102;28;19908;-67
2023/01/21 07:41:07;;;;;;;;;;;19.30;52.30;;;;;;6319609;28;20376;-70
2023/01/21 07:44:08;;;;;;;;;;;19.30;52.30;;;;;;6319990;28;19908;-68
2023/01/21 07:47:09;;;;;;;;;;;19.30;52.30;;;;;;6319612;28;19912;-67
2023/01/21 07:50:10;;;;;;;;;;;19.30;52.30;;;;;;6319744;28;19912;-67
2023/01/21 07:53:11;;;;;;;;;;;19.30;52.40;;;;;;6319411;28;19907;-67
2023/01/21 07:56:12;;;;;;;;;;;19.30;53.00;;;;;;6319473;28;19919;-67
2023/01/21 07:59:12;;;;;;;;;;;19.30;52.30;;;;;;6300975;28;19908;-68
2023/01/21 08:02:13;;;;;;;;;;;19.30;52.40;;;;;;6319343;28;19908;-67
2023/01/21 08:05:13;;;;;;;;;;;19.30;52.30;;;;;;6319032;28;19908;-68
2023/01/21 08:08:14;;;;;;;;;;;19.30;52.30;;;;;;6319305;28;19908;-67
2023/01/21 08:11:14;;;;;;;;;;;19.30;52.30;;;;;;6318893;28;19907;-67
2023/01/21 08:14:15;;;;;;;;;;;19.30;52.30;;;;;;6318901;28;19911;-67
2023/01/21 08:17:15;;;;;;;;;;;19.30;52.30;;;;;;6319154;28;20295;-70
2023/01/21 08:20:16;;;;;;;;;;;19.30;52.20;;;;;;6300650;28;19904;-68
2023/01/21 08:23:17;;;;;;;;;;;19.30;52.20;;;;;;6318936;28;19949;-68
2023/01/21 08:26:17;;;;;;;;;;;19.30;53.00;;;;;;6341783;28;19919;-67
2023/01/21 08:29:18;;;;;;;;;;;19.30;52.30;;;;;;6330241;28;20458;-67
2023/01/21 08:32:18;;;;;;;;;;;19.30;52.20;;;;;;6318355;28;19908;-67
2023/01/21 08:35:19;;;;;;;;;;;19.30;52.20;;;;;;6318902;28;19904;-67
2023/01/21 08:38:19;;;;;;;;;;;19.30;52.30;;;;;;6318649;28;19915;-67
2023/01/21 08:41:20;;;;;;;;;;;19.30;52.20;;;;;;6318499;28;19995;-67
2023/01/21 08:44:21;;;;;;;;;;;19.30;52.20;;;;;;6318438;28;19904;-68
2023/01/21 08:47:21;;;;;;;;;;;19.30;52.20;;;;;;6300159;28;19903;-67
2023/01/21 08:50:22;;;;;;;;;;;19.30;52.20;;;;;;6318434;28;20533;-68
2023/01/21 08:53:23;;;;;;;;;;;19.30;52.20;;;;;;6318052;28;19912;-67
2023/01/21 08:56:23;;;;;;;;;;;19.30;52.20;;;;;;6299835;28;19912;-67
2023/01/21 08:59:27;;;;;;;;;;;19.30;52.20;;;;;;6318368;28;19908;-67
2023/01/21 09:02:27;;;;;;;;;;;19.30;52.30;;;;;;6299837;28;19910;-67
2023/01/21 09:05:28;;;;;;;;;;;19.30;52.30;;;;;;6318087;28;20596;-68
2023/01/21 09:08:29;;;;;;;;;;;19.30;52.30;;;;;;6317740;28;19951;-68
2023/01/21 09:11:29;;;;;;;;;;;19.30;52.30;;;;;;6318104;28;19991;-67
2023/01/21 09:14:30;;;;;;;;;;;19.30;52.30;;;;;;6318020;28;19911;-68
2023/01/21 09:17:31;;;;;;;;;;;19.30;52.30;;;;;;6318402;28;19957;-67
2023/01/21 09:20:31;;;;;;;;;;;19.30;52.30;;;;;;6318232;28;19907;-67
2023/01/21 09:23:33;;;;;;;;;;;19.30;52.30;;;;;;6318151;28;20360;-67
2023/01/21 09:26:34;;;;;;;;;;;19.30;52.20;;;;;;6316843;28;20350;-68
2023/01/21 09:29:35;;;;;;;;;;;19.30;52.30;;;;;;6299469;28;19904;-68
2023/01/21 09:32:36;;;;;;;;;;;19.30;52.20;;;;;;6299694;28;19911;-68
2023/01/21 09:35:37;;;;;;;;;;;19.30;52.30;;;;;;6317879;28;19954;-67
2023/01/21 09:38:39;;;;;;;;;;;19.30;52.20;;;;;;6299678;28;19912;-67
2023/01/21 09:41:44;;;;;;;;;;;19.30;52.20;;;;;;6299642;28;19988;-67
2023/01/21 09:44:47;;;;;;;;;;;19.30;52.20;;;;;;6308452;28;19919;-70
2023/01/21 09:47:49;;;;;;;;;;;19.30;52.30;;;;;;6313856;28;19961;-68
2023/01/21 09:50:49;;;;;;;;;;;19.30;52.20;;;;;;6315497;28;19911;-67
2023/01/21 09:53:53;;;;;;;;;;;19.30;52.10;;;;;;6315993;28;19954;-67
2023/01/21 09:57:08;;;;;;;;;;;19.30;52.20;;;;;;6308402;28;20467;-68
2023/01/21 10:00:27;;;;;;;;;;;19.30;52.30;;;;;;6333149;28;19912;-67
2023/01/21 10:03:28;;;;;;;;;;;19.30;52.30;;;;;;6330602;28;20006;-69
2023/01/21 10:06:48;;;;;;;;;;;19.30;52.30;;;;;;6319529;28;19908;-67
2023/01/21 10:09:48;;;;;;;;;;;19.30;52.30;;;;;;6318593;28;19915;-67
2023/01/21 10:13:04;;;;;;;;;;;19.30;52.20;;;;;;6320157;28;19994;-67
2023/01/21 10:16:23;;;;;;;;;;;19.30;52.20;;;;;;6319464;28;20384;-70
2023/01/21 10:19:42;;;;;;;;;;;19.30;52.20;;;;;;6320634;28;19915;-69
2023/01/21 10:22:50;;;;;;;;;;;19.30;52.30;;;;;;6320110;28;19954;-71
2023/01/21 10:25:50;;;;;;;;;;;19.40;52.30;;;;;;6311276;28;19916;-68
2023/01/21 10:28:53;;;;;;;;;;;19.40;52.30;;;;;;6319973;28;19908;-68
2023/01/21 10:31:58;;;;;;;;;;;19.30;52.20;;;;;;6320100;28;19991;-70
2023/01/21 10:34:59;;;;;;;;;;;19.40;52.30;;;;;;6301475;28;19911;-68
2023/01/21 10:38:04;;;;;;;;;;;19.40;52.40;;;;;;6331632;28;19908;-68
2023/01/21 10:41:24;;;;;;;;;;;19.40;52.40;;;;;;6303313;28;19908;-68
2023/01/21 10:44:32;;;;;;;;;;;19.40;52.40;;;;;;6317887;28;19904;-68
2023/01/21 10:47:45;;;;;;;;;;;19.30;52.40;;;;;;6326436;28;19957;-69
2023/01/21 10:51:04;;;;;;;;;;;19.40;52.40;;;;;;6345070;28;19903;-68
2023/01/21 10:54:20;;;;;;;;;;;19.40;52.50;;;;;;6333296;28;20277;-68
2023/01/21 10:57:42;;;;;;;;;;;19.40;52.40;;;;;;6319239;28;20010;-68
2023/01/21 11:00:46;;;;;;;;;;;19.30;52.40;;;;;;6314481;28;20378;-68
2023/01/21 11:03:48;;;;;;;;;;;19.30;52.40;;;;;;6342300;28;20284;-68
2023/01/21 11:06:59;;;;;;;;;;;19.40;52.50;;;;;;6345335;28;19994;-71
2023/01/21 11:10:01;;;;;;;;;;;19.30;52.40;;;;;;6346350;28;19903;-70
2023/01/21 11:13:01;;;;;;;;;;;19.40;52.50;;;;;;6324469;28;20342;-67
2023/01/21 11:16:03;;;;;;;;;;;19.40;52.40;;;;;;6319654;28;19947;-68
2023/01/21 11:19:07;;;;;;;;;;;19.40;52.40;;;;;;6301238;28;19999;-67
2023/01/21 11:22:13;;;;;;;;;;;19.40;52.40;;;;;;6319343;28;19947;-68
2023/01/21 11:25:36;;;;;;;;;;;19.40;52.30;;;;;;6329596;28;19970;-66
2023/01/21 11:28:36;;;;;;;;;;;19.40;52.20;;;;;;6314596;28;20394;-65
2023/01/21 11:31:38;;;;;;;;;;;19.40;52.20;;;;;;6309662;28;19911;-67
2023/01/21 11:34:42;;;;;;;;;;;19.40;52.20;;;;;;6336638;28;19958;-68
2023/01/21 11:37:43;;;;;;;;;;;19.40;52.20;;;;;;6341739;28;20351;-67
2023/01/21 11:40:44;;;;;;;;;;;19.40;52.30;;;;;;6314758;28;19904;-68
2023/01/21 11:43:46;;;;;;;;;;;19.40;52.30;;;;;;6312080;28;19919;-67
2023/01/21 11:46:47;;;;;;;;;;;19.40;52.20;;;;;;6342173;28;19908;-68
2023/01/21 11:49:47;;;;;;;;;;;19.40;52.30;;;;;;6335747;28;19915;-67
2023/01/21 11:53:10;;;;;;;;;;;19.40;52.20;;;;;;6323291;28;20019;-67
2023/01/21 11:56:11;;;;;;;;;;;19.40;52.30;;;;;;6312062;28;20296;-67
2023/01/21 11:59:32;;;;;;;;;;;19.50;52.40;;;;;;6308445;28;20532;-68
2023/01/21 12:02:39;;;;;;;;;;;19.50;52.90;;;;;;6300311;28;19908;-68
2023/01/21 12:05:41;;;;;;;;;;;19.60;52.20;;;;;;6317442;28;19937;-67
2023/01/21 12:08:44;;;;;;;;;;;19.60;52.00;;;;;;6317791;28;19912;-68
2023/01/21 12:12:01;;;;;;;;;;;19.50;52.10;;;;;;6317530;28;19911;-67
2023/01/21 12:15:10;;;;;;;;;;;19.50;52.10;;;;;;6315549;28;19903;-67
2023/01/21 12:18:17;;;;;;;;;;;19.50;52.10;;;;;;6326831;28;20471;-67
2023/01/21 12:21:33;;;;;;;;;;;19.60;52.40;;;;;;6325097;28;20424;-68
2023/01/21 12:24:34;;;;;;;;;;;19.60;52.20;;;;;;6334593;28;19953;-68
2023/01/21 12:27:49;;;;;;;;;;;19.60;52.30;;;;;;6315659;28;19916;-68
2023/01/21 12:31:04;;;;;;;;;;;19.50;52.20;;;;;;6317646;28;19954;-68
2023/01/21 12:34:10;;;;;;;;;;;19.60;52.30;;;;;;6319057;28;20668;-68
2023/01/21 12:37:11;;;;;;;;;;;19.60;52.30;;;;;;6321478;28;19907;-67
2023/01/21 12:40:14;;;;;;;;;;;19.50;52.30;;;;;;6322254;28;20289;-68
2023/01/21 12:43:35;;;;;;;;;;;19.50;52.30;;;;;;6295099;28;20336;-68
2023/01/21 12:46:39;;;;;;;;;;;19.50;52.20;;;;;;6329282;28;20003;-68
2023/01/21 12:49:46;;;;;;;;;;;19.50;52.30;;;;;;6320064;28;19910;-68
2023/01/21 12:53:05;;;;;;;;;;;19.50;52.20;;;;;;6336119;28;19997;-67
2023/01/21 12:56:06;;;;;;;;;;;19.50;52.30;;;;;;6332565;28;20322;-67
2023/01/21 12:59:16;;;;;;;;;;;19.50;52.20;;;;;;6342123;28;20336;-67
2023/01/21 13:02:17;;;;;;;;;;;19.50;52.20;;;;;;6313504;28;19908;-68
2023/01/21 13:05:42;;;;;;;;;;;19.50;52.20;;;;;;6323658;28;20437;-68
2023/01/21 13:09:00;;;;;;;;;;;19.50;52.20;;;;;;6303665;28;20404;-67
2023/01/21 13:12:07;;;;;;;;;;;19.50;52.20;;;;;;6328587;28;19904;-70
2023/01/21 13:15:08;;;;;;;;;;;19.50;52.30;;;;;;6315517;28;19915;-68
2023/01/21 13:18:21;;;;;;;;;;;19.50;52.30;;;;;;6315872;28;19916;-67
2023/01/21 13:21:36;;;;;;;;;;;19.50;52.30;;;;;;6298717;28;20411;-70
2023/01/21 13:24:55;;;;;;;;;;;19.50;52.30;;;;;;6315741;28;19904;-68
2023/01/21 13:28:11;;;;;;;;;;;19.50;52.30;;;;;;6306502;28;19920;-67
2023/01/21 13:31:31;;;;;;;;;;;19.50;52.40;;;;;;6301336;28;19915;-68
2023/01/21 13:34:40;;;;;;;;;;;19.50;52.30;;;;;;6315209;28;20014;-68
2023/01/21 13:37:47;;;;;;;;;;;19.50;52.30;;;;;;6315402;28;20345;-68
2023/01/21 13:41:02;;;;;;;;;;;19.50;52.20;;;;;;6319449;28;20272;-67
2023/01/21 13:44:23;;;;;;;;;;;19.50;52.20;;;;;;6328314;28;19904;-68
2023/01/21 13:47:50;;;;;;;;;;;19.50;52.10;;;;;;6327563;28;19982;-68
2023/01/21 13:51:17;;;;;;;;;;;19.50;52.10;;;;;;6308877;28;20304;-67
2023/01/21 13:54:30;;;;;;;;;;;19.50;52.10;;;;;;6272020;28;19904;-68
2023/01/21 13:57:31;;;;;;;;;;;19.50;52.10;;;;;;6321441;28;19911;-68
2023/01/21 14:00:43;;;;;;;;;;;19.50;52.10;;;;;;6343758;28;19908;-69
2023/01/21 14:03:49;;;;;;;;;;;19.50;52.10;;;;;;6301735;28;19915;-67
2023/01/21 14:06:53;;;;;;;;;;;19.50;52.10;;;;;;6301822;28;19919;-68
2023/01/21 14:10:04;;;;;;;;;;;19.60;52.30;;;;;;6301535;28;19904;-68
2023/01/21 14:13:23;;;;;;;;;;;19.60;52.00;;;;;;6318971;28;19904;-68
2023/01/21 14:16:39;;;;;;;;;;;19.60;52.10;;;;;;6319254;28;19904;-68
2023/01/21 14:19:54;;;;;;;;;;;19.60;52.00;;;;;;6319614;28;19929;-68
2023/01/21 14:23:07;;;;;;;;;;;19.60;51.90;;;;;;6318135;28;20288;-68
2023/01/21 14:26:13;;;;;;;;;;;19.60;52.00;;;;;;6320520;28;19923;-68
2023/01/21 14:29:20;;;;;;;;;;;19.60;52.00;;;;;;6343266;28;20626;-67
2023/01/21 14:32:42;;;;;;;;;;;19.60;52.00;;;;;;6308483;28;19928;-68
2023/01/21 14:36:04;;;;;;;;;;;19.60;52.00;;;;;;6310722;28;19943;-69
2023/01/21 14:39:20;;;;;;;;;;;19.60;52.00;;;;;;6318861;28;20553;-68
2023/01/21 14:42:38;;;;;;;;;;;19.60;52.00;;;;;;6295427;28;19998;-68
2023/01/21 14:45:58;;;;;;;;;;;19.60;52.20;;;;;;6344544;28;19935;-68
2023/01/21 14:49:00;;;;;;;;;;;19.60;52.50;;;;;;6344730;28;20080;-66
2023/01/21 14:52:02;;;;;;;;;;;19.70;52.10;;;;;;6306882;28;20509;-68
2023/01/21 14:55:02;;;;;;;;;;;19.60;52.00;;;;;;6344750;28;19907;-68
2023/01/21 14:58:03;;;;;;;;;;;19.60;51.90;;;;;;6343322;28;19907;-68
2023/01/21 15:01:05;;;;;;;;;;;19.60;51.80;;;;;;6326470;28;20322;-68
2023/01/21 15:04:22;;;;;;;;;;;19.60;51.90;;;;;;6328984;28;19908;-68
2023/01/21 15:07:26;;;;;;;;;;;19.60;52.60;;;;;;6324684;28;19915;-67
2023/01/21 15:10:35;;;;;;;;;;;19.60;52.00;;;;;;6344511;28;19904;-68
2023/01/21 15:13:37;;;;;;;;;;;19.60;52.00;;;;;;6334793;28;19953;-68
2023/01/21 15:16:38;;;;;;;;;;;19.60;51.90;;;;;;6324881;28;20011;-67
2023/01/21 15:19:39;;;;;;;;;;;19.60;51.90;;;;;;6341473;28;19908;-68
2023/01/21 15:22:40;;;;;;;;;;;19.60;51.90;;;;;;6321284;28;19908;-69
2023/01/21 15:26:00;;;;;;;;;;;19.60;52.00;;;;;;6317980;28;19992;-68
2023/01/21 15:29:20;;;;;;;;;;;19.60;51.90;;;;;;6333171;28;19915;-69
2023/01/21 15:32:23;;;;;;;;;;;19.60;51.90;;;;;;6343315;28;19910;-68
2023/01/21 15:35:34;;;;;;;;;;;19.60;51.90;;;;;;6324706;28;19929;-68
2023/01/21 15:38:38;;;;;;;;;;;19.60;51.90;;;;;;6329479;28;19914;-68
2023/01/21 15:41:56;;;;;;;;;;;19.60;51.90;;;;;;6314136;28;19908;-68
2023/01/21 15:45:08;;;;;;;;;;;19.60;51.90;;;;;;6339010;28;20296;-68
2023/01/21 15:48:16;;;;;;;;;;;19.60;51.90;;;;;;6337018;28;19912;-68
2023/01/21 15:51:33;;;;;;;;;;;19.60;51.80;;;;;;6310643;28;19927;-68
2023/01/21 15:54:53;;;;;;;;;;;19.60;51.80;;;;;;6317791;28;19995;-68
2023/01/21 15:58:07;;;;;;;;;;;19.60;51.90;;;;;;6316986;28;19969;-68
2023/01/21 16:01:14;;;;;;;;;;;19.60;51.90;;;;;;6317559;28;20380;-67
2023/01/21 16:04:34;;;;;;;;;;;19.60;51.70;;;;;;6315671;28;19912;-68
2023/01/21 16:07:53;;;;;;;;;;;19.60;51.90;;;;;;6298935;28;19911;-66
2023/01/21 16:11:01;;;;;;;;;;;19.70;51.90;;;;;;6299145;28;19954;-67
2023/01/21 16:14:20;;;;;;;;;;;19.70;51.70;;;;;;6327179;28;20384;-68
2023/01/21 16:17:28;;;;;;;;;;;19.60;51.60;;;;;;6341884;28;19914;-68
2023/01/21 16:20:29;;;;;;;;;;;19.60;51.60;;;;;;6343115;28;19911;-66
2023/01/21 16:23:34;;;;;;;;;;;19.60;51.70;;;;;;6301498;28;20292;-67
2023/01/21 16:26:34;;;;;;;;;;;19.60;51.60;;;;;;6316516;28;19916;-67
2023/01/21 16:29:36;;;;;;;;;;;19.60;51.60;;;;;;6326486;28;19930;-66
2023/01/21 16:32:37;;;;;;;;;;;19.60;51.70;;;;;;6340951;28;20420;-67
2023/01/21 16:35:42;;;;;;;;;;;19.60;51.70;;;;;;6317190;28;19914;-68
2023/01/21 16:38:44;;;;;;;;;;;19.60;51.90;;;;;;6298238;28;19908;-67
2023/01/21 16:41:57;;;;;;;;;;;19.60;51.80;;;;;;6301547;28;19918;-67
2023/01/21 16:44:58;;;;;;;;;;;19.60;51.70;;;;;;6316500;28;19922;-67
2023/01/21 16:47:59;;;;;;;;;;;19.70;51.70;;;;;;6316165;28;19911;-67
2023/01/21 16:51:01;;;;;;;;;;;19.60;51.70;;;;;;6320278;28;19914;-69
2023/01/21 16:54:17;;;;;;;;;;;19.70;51.70;;;;;;6316453;28;19911;-67
2023/01/21 16:57:26;;;;;;;;;;;19.60;51.60;;;;;;6315700;28;19915;-67
2023/01/21 17:00:28;;;;;;;;;;;19.60;51.70;;;;;;6316172;28;19935;-67
2023/01/21 17:03:28;;;;;;;;;;;19.60;51.70;;;;;;6316102;28;19904;-67
2023/01/21 17:06:30;;;;;;;;;;;19.60;51.70;;;;;;6290443;28;20374;-67
2023/01/21 17:09:33;;;;;;;;;;;19.60;51.90;;;;;;6320183;28;20276;-67
2023/01/21 17:12:35;;;;;;;;;;;19.60;51.80;;;;;;6317230;28;20572;-67
2023/01/21 17:15:40;;;;;;;;;;;19.60;51.90;;;;;;6333611;28;19904;-67
2023/01/21 17:18:47;;;;;;;;;;;19.60;51.90;;;;;;6327963;28;19911;-66
2023/01/21 17:21:54;;;;;;;;;;;19.60;51.90;;;;;;6321229;28;19908;-67
2023/01/21 17:25:09;;;;;;;;;;;19.60;52.00;;;;;;6302691;28;19955;-67
2023/01/21 17:28:35;;;;;;;;;;;19.60;52.00;;;;;;6318102;28;19927;-67
2023/01/21 17:31:38;;;;;;;;;;;19.60;52.00;;;;;;6316963;28;19915;-67
2023/01/21 17:34:40;;;;;;;;;;;19.60;52.00;;;;;;6298077;28;20059;-66
2023/01/21 17:37:42;;;;;;;;;;;19.60;52.00;;;;;;6337200;28;19908;-66
2023/01/21 17:40:57;;;;;;;;;;;19.60;52.00;;;;;;6317580;28;19911;-67
2023/01/21 17:43:59;;;;;;;;;;;19.60;52.00;;;;;;6321375;28;19908;-67
2023/01/21 17:46:59;;;;;;;;;;;19.60;52.60;;;;;;6341069;28;19917;-67
2023/01/21 17:50:05;;;;;;;;;;;19.60;52.00;;;;;;6346011;28;20357;-67
2023/01/21 17:53:08;;;;;;;;;;;19.60;51.90;;;;;;6338117;28;19913;-67
2023/01/21 17:56:09;;;;;;;;;;;19.60;51.90;;;;;;6331712;28;19932;-69
2023/01/21 17:59:32;;;;;;;;;;;19.60;51.90;;;;;;6346231;28;19907;-67
2023/01/21 18:02:33;;;;;;;;;;;19.60;51.80;;;;;;6316282;28;19944;-66